Lauren L — ZGDH6 — position and weather

sailwx.info

Track history (hours):
 
Tides and Currents Weather Stations Pressure Air Temp Water Temp Dewpoint Dewpoint Depression Visibility Wind Speed Wind Dir Waves Ship Positions

Lauren L

Last reported at 2017-Nov-30 08:11 UTC. Time now 2017-Dec-11 19:12 UTC.
Position N 01°15' E 104°00'.
Warning: this ship's position is 11 days out of date.

Length 90 m; draft 3.9 m.

Type: Other ship. MMSI: 319053200.

Date/timePositionNaut miles runAvg speedWind from/ knotsBaromVisibWave heightAir tempDewpointWater temp
2017-Nov-30 08:11N 01°15' E 104°00'313.4
2017-Nov-30 08:00N 01°14' E 103°58'9 1.5
2017-Nov-30 02:05N 01°14' E 103°49'0 0.1
2017-Nov-30 01:53N 01°14' E 103°49'0 0.2
2017-Nov-30 01:30N 01°14' E 103°49'1 2.0
2017-Nov-30 01:00N 01°13' E 103°49'0 0.1
2017-Nov-30 00:30N 01°13' E 103°49'0 0.0
2017-Nov-29 23:56N 01°13' E 103°49'1 2.6
2017-Nov-29 23:30N 01°13' E 103°48'4 7.6
2017-Nov-29 23:00N 01°15' E 103°45'5 9.3
2017-Nov-29 22:30N 01°13' E 103°40'3 6.5
2017-Nov-29 22:00N 01°13' E 103°37'1 2.8
2017-Nov-29 21:30N 01°12' E 103°36'4 8.3
2017-Nov-29 20:58N 01°10' E 103°32'4 9.0
2017-Nov-29 20:30N 01°10' E 103°28'7 9.9
2017-Nov-29 19:49N 01°14' E 103°22'  
Track history (hours):
 
Tides and Currents Weather Stations Pressure Air Temp Water Temp Dewpoint Dewpoint Depression Visibility Wind Speed Wind Dir Waves Ship Positions

Lauren L

Last reported at 2017-Nov-30 08:11 UTC. Time now 2017-Dec-11 19:12 UTC.
Position N 01°15' E 104°00'.
Warning: this ship's position is 11 days out of date.

Length 90 m; draft 3.9 m.

Type: Other ship. MMSI: 319053200.

Date/timePositionNaut miles runAvg speedWind from/ knotsBaromVisibWave heightAir tempDewpointWater temp
2017-Nov-30 08:11N 01°15' E 104°00'313.4
2017-Nov-30 08:00N 01°14' E 103°58'9 1.5
2017-Nov-30 02:05N 01°14' E 103°49'0 0.1
2017-Nov-30 01:53N 01°14' E 103°49'0 0.2
2017-Nov-30 01:30N 01°14' E 103°49'1 2.0
2017-Nov-30 01:00N 01°13' E 103°49'0 0.1
2017-Nov-30 00:30N 01°13' E 103°49'0 0.0
2017-Nov-29 23:56N 01°13' E 103°49'1 2.6
2017-Nov-29 23:30N 01°13' E 103°48'4 7.6
2017-Nov-29 23:00N 01°15' E 103°45'5 9.3
2017-Nov-29 22:30N 01°13' E 103°40'3 6.5
2017-Nov-29 22:00N 01°13' E 103°37'1 2.8
2017-Nov-29 21:30N 01°12' E 103°36'4 8.3
2017-Nov-29 20:58N 01°10' E 103°32'4 9.0
2017-Nov-29 20:30N 01°10' E 103°28'7 9.9
2017-Nov-29 19:49N 01°14' E 103°22'  

Dump ship's entire track history